Terminal Aerodrome Forecast
Issued by NWS

Home | Current Version | Previous Version | Text Only | Print | Product List | Glossary On
Versions: 1 2 3 4 5 6 7 8 9 10 11 12 13
000
FTUS45 KREV 240112 AAA
TAFCXP
TAF AMD
KCXP 240112Z 2401/2424 26010G18KT P6SM SCT110
     FM240500 VRB04KT P6SM VCSH BKN100
     FM240800 VRB03KT P6SM FEW100
     FM242100 27007G15KT P6SM SCT120=

USA.gov is the U.S. government's official web portal to all federal, state and local government web resources and services.